Warrensburg, IL (62573)

6:54 AM CST on December 20, 2014 (GMT -0600)
Forsyth Pkwy | Change Station
CLOSE
Current Station
Personal Weather Station
Location: Forsyth, IL
Elevation: 669 ft
Nearby Weather Stations

Elev 669 ft 39.93 °N, 88.97 °W | Updated 3 minutes ago

Overcast
Overcast
31.0 °F
Feels Like 31 °F
N
0.0
Wind Variable Wind from SSE
Gusts 0.0 mph

Today
High -- | Low -- °F
--% Chance of Precip.
Yesterday
High -- | Low -- °F
Precip. -- in
7:13 AM 4:33 PM
Waning Crescent, 3% visible
Pressure 30.30 in
Visibility 8.0 miles
Clouds Overcast 4900 ft
Windchill 31 °F
Dew Point 28 °F
Humidity 90%
Rainfall 0.00 in
Snow Depth Not available.
UV 0 out of 12
Pollen .10 out of 12
Air Quality Not available.
Flu Activity Not available.
METAR KDEC 201154Z 13004KT 8SM OVC049 M01/M03 A3027 RMK AO2 SLP259 T10111028 11011 21017 55000

More Conditions Fewer Conditions

Pressure 30.30 in
Visibility 8.0 miles
Clouds Overcast 4900 ft
Windchill 31 °F
Dew Point 28 °F
Humidity 90%
Rainfall 0.00 in
Snow Depth Not available.
UV 0 out of 12
Pollen .10 out of 12
Air Quality Not available.
Flu Activity Not available.
METAR KDEC 201154Z 13004KT 8SM OVC049 M01/M03 A3027 RMK AO2 SLP259 T10111028 11011 21017 55000

More Conditions Fewer Conditions

10-Day Weather Forecast

Almanac

Astronomy

Dec. 20, 2014 Rise Set
Actual Time
Civil Twilight
Nautical Twilight
Astronomical Twilight
Moon
Length of Visible Light
Length of Day
Tomorrow will be .
, % of the Moon is Illuminated

Today's Extremes

State Highs State Lows

Community

WunderPhotos

Upload Photos

1,779,163 photos uploaded!

WunderBlogs® & News

Nearby

Air Quality

  Air Quality AQ Index Pollutant
Not available.

Snow Depth

Station Depth Elevation

Earthquake Activity

City Distance Mag. Time & Date
Minimum magnitude displayed is 2.5.

Coastal Water Temperatures

Place Temperature

Nearby Weather Stations